sensor_id;sensor_type;location;lat;lon;timestamp;temperature;humidity
63299;DHT22;54535;52.138;5.398;2022-08-01T00:00:07;20.10;99.90
63299;DHT22;54535;52.138;5.398;2022-08-01T00:02:36;20.10;99.90
63299;DHT22;54535;52.138;5.398;2022-08-01T00:05:05;20.10;99.90
63299;DHT22;54535;52.138;5.398;2022-08-01T00:07:36;20.10;99.90
63299;DHT22;54535;52.138;5.398;2022-08-01T00:10:05;20.10;99.90
63299;DHT22;54535;52.138;5.398;2022-08-01T00:12:32;20.10;99.90
63299;DHT22;54535;52.138;5.398;2022-08-01T00:14:59;20.00;99.90
63299;DHT22;54535;52.138;5.398;2022-08-01T00:17:26;20.00;99.90
63299;DHT22;54535;52.138;5.398;2022-08-01T00:19:53;20.00;99.90
63299;DHT22;54535;52.138;5.398;2022-08-01T00:22:19;20.00;99.90
63299;DHT22;54535;52.138;5.398;2022-08-01T00:24:46;19.90;99.90
63299;DHT22;54535;52.138;5.398;2022-08-01T00:27:13;19.90;99.90
63299;DHT22;54535;52.138;5.398;2022-08-01T00:29:40;19.90;99.90
63299;DHT22;54535;52.138;5.398;2022-08-01T00:32:30;19.90;99.90
63299;DHT22;54535;52.138;5.398;2022-08-01T00:34:57;19.80;99.90
63299;DHT22;54535;52.138;5.398;2022-08-01T00:37:24;19.90;99.90
63299;DHT22;54535;52.138;5.398;2022-08-01T00:39:51;19.90;99.90
63299;DHT22;54535;52.138;5.398;2022-08-01T00:42:17;19.90;99.90
63299;DHT22;54535;52.138;5.398;2022-08-01T00:44:44;19.90;99.90
63299;DHT22;54535;52.138;5.398;2022-08-01T00:47:11;19.90;99.90
63299;DHT22;54535;52.138;5.398;2022-08-01T00:49:38;19.80;99.90
63299;DHT22;54535;52.138;5.398;2022-08-01T00:52:05;19.80;99.90
63299;DHT22;54535;52.138;5.398;2022-08-01T00:54:33;19.80;99.90
63299;DHT22;54535;52.138;5.398;2022-08-01T00:57:00;19.90;99.90
63299;DHT22;54535;52.138;5.398;2022-08-01T00:59:26;19.80;99.90
63299;DHT22;54535;52.138;5.398;2022-08-01T01:01:53;19.80;99.90
63299;DHT22;54535;52.138;5.398;2022-08-01T01:04:22;19.70;99.90
63299;DHT22;54535;52.138;5.398;2022-08-01T01:07:00;19.80;99.90
63299;DHT22;54535;52.138;5.398;2022-08-01T01:12:27;19.70;99.90
63299;DHT22;54535;52.138;5.398;2022-08-01T01:15:05;19.80;99.90
63299;DHT22;54535;52.138;5.398;2022-08-01T01:17:39;19.70;99.90
63299;DHT22;54535;52.138;5.398;2022-08-01T01:20:19;19.70;99.90
63299;DHT22;54535;52.138;5.398;2022-08-01T01:28:04;19.70;99.90
63299;DHT22;54535;52.138;5.398;2022-08-01T01:30:33;19.70;99.90
63299;DHT22;54535;52.138;5.398;2022-08-01T01:33:03;19.70;99.90
63299;DHT22;54535;52.138;5.398;2022-08-01T01:35:35;19.70;99.90
63299;DHT22;54535;52.138;5.398;2022-08-01T01:38:13;19.60;99.90
63299;DHT22;54535;52.138;5.398;2022-08-01T01:40:41;19.60;99.90
63299;DHT22;54535;52.138;5.398;2022-08-01T01:43:11;19.60;99.90
63299;DHT22;54535;52.138;5.398;2022-08-01T01:45:40;19.50;99.90
63299;DHT22;54535;52.138;5.398;2022-08-01T01:48:10;19.50;99.90
63299;DHT22;54535;52.138;5.398;2022-08-01T01:50:39;19.60;99.90
63299;DHT22;54535;52.138;5.398;2022-08-01T01:53:07;19.50;99.90
63299;DHT22;54535;52.138;5.398;2022-08-01T01:55:43;19.50;99.90
63299;DHT22;54535;52.138;5.398;2022-08-01T01:58:16;19.50;99.90
63299;DHT22;54535;52.138;5.398;2022-08-01T02:00:45;19.60;99.90
63299;DHT22;54535;52.138;5.398;2022-08-01T02:03:14;19.60;99.90
63299;DHT22;54535;52.138;5.398;2022-08-01T02:05:41;19.70;99.90
63299;DHT22;54535;52.138;5.398;2022-08-01T02:08:10;19.70;99.90
63299;DHT22;54535;52.138;5.398;2022-08-01T02:10:39;19.70;99.90
63299;DHT22;54535;52.138;5.398;2022-08-01T02:13:07;19.70;99.90
63299;DHT22;54535;52.138;5.398;2022-08-01T02:15:36;19.70;99.90
63299;DHT22;54535;52.138;5.398;2022-08-01T02:18:26;19.60;99.90
63299;DHT22;54535;52.138;5.398;2022-08-01T02:20:54;19.70;99.90
63299;DHT22;54535;52.138;5.398;2022-08-01T02:23:25;19.70;99.90
63299;DHT22;54535;52.138;5.398;2022-08-01T02:25:55;19.70;99.90
63299;DHT22;54535;52.138;5.398;2022-08-01T02:28:59;19.80;99.90
63299;DHT22;54535;52.138;5.398;2022-08-01T02:31:32;19.70;99.90
63299;DHT22;54535;52.138;5.398;2022-08-01T02:34:05;19.70;99.90
63299;DHT22;54535;52.138;5.398;2022-08-01T02:36:35;19.70;99.90
63299;DHT22;54535;52.138;5.398;2022-08-01T02:39:12;19.70;99.90
63299;DHT22;54535;52.138;5.398;2022-08-01T02:41:42;19.70;99.90
63299;DHT22;54535;52.138;5.398;2022-08-01T02:44:11;19.80;99.90
63299;DHT22;54535;52.138;5.398;2022-08-01T02:46:51;19.80;99.90
63299;DHT22;54535;52.138;5.398;2022-08-01T02:49:19;19.80;99.90
63299;DHT22;54535;52.138;5.398;2022-08-01T02:51:48;19.80;99.90
63299;DHT22;54535;52.138;5.398;2022-08-01T02:54:17;19.80;99.90
63299;DHT22;54535;52.138;5.398;2022-08-01T02:56:47;19.70;99.90
63299;DHT22;54535;52.138;5.398;2022-08-01T02:59:17;19.70;99.90
63299;DHT22;54535;52.138;5.398;2022-08-01T03:01:49;19.70;99.90
63299;DHT22;54535;52.138;5.398;2022-08-01T03:04:22;19.70;99.90
63299;DHT22;54535;52.138;5.398;2022-08-01T03:06:51;19.70;99.90
63299;DHT22;54535;52.138;5.398;2022-08-01T03:09:19;19.70;99.90
63299;DHT22;54535;52.138;5.398;2022-08-01T03:11:46;19.70;99.90
63299;DHT22;54535;52.138;5.398;2022-08-01T03:14:14;19.70;99.90
63299;DHT22;54535;52.138;5.398;2022-08-01T03:16:44;19.70;99.90
63299;DHT22;54535;52.138;5.398;2022-08-01T03:19:12;19.80;99.90
63299;DHT22;54535;52.138;5.398;2022-08-01T03:21:41;19.70;99.90
63299;DHT22;54535;52.138;5.398;2022-08-01T03:24:10;19.80;99.90
63299;DHT22;54535;52.138;5.398;2022-08-01T03:26:39;19.70;99.90
63299;DHT22;54535;52.138;5.398;2022-08-01T03:29:14;19.70;99.90
63299;DHT22;54535;52.138;5.398;2022-08-01T03:31:44;19.70;99.90
63299;DHT22;54535;52.138;5.398;2022-08-01T03:34:12;19.70;99.90
63299;DHT22;54535;52.138;5.398;2022-08-01T03:36:53;19.70;99.90
63299;DHT22;54535;52.138;5.398;2022-08-01T03:39:26;19.70;99.90
63299;DHT22;54535;52.138;5.398;2022-08-01T03:42:12;19.70;99.90
63299;DHT22;54535;52.138;5.398;2022-08-01T03:44:41;19.80;99.90
63299;DHT22;54535;52.138;5.398;2022-08-01T03:47:15;19.80;99.90
63299;DHT22;54535;52.138;5.398;2022-08-01T03:49:44;19.70;99.90
63299;DHT22;54535;52.138;5.398;2022-08-01T03:52:14;19.70;99.90
63299;DHT22;54535;52.138;5.398;2022-08-01T03:54:46;19.70;99.90
63299;DHT22;54535;52.138;5.398;2022-08-01T03:57:14;19.70;99.90
63299;DHT22;54535;52.138;5.398;2022-08-01T04:00:04;19.70;99.90
63299;DHT22;54535;52.138;5.398;2022-08-01T04:02:38;19.70;99.90
63299;DHT22;54535;52.138;5.398;2022-08-01T04:05:06;19.60;99.90
63299;DHT22;54535;52.138;5.398;2022-08-01T04:07:33;19.60;99.90
63299;DHT22;54535;52.138;5.398;2022-08-01T04:10:04;19.60;99.90
63299;DHT22;54535;52.138;5.398;2022-08-01T04:12:32;19.50;99.90
63299;DHT22;54535;52.138;5.398;2022-08-01T04:14:59;19.50;99.90
63299;DHT22;54535;52.138;5.398;2022-08-01T04:17:25;19.50;99.90
63299;DHT22;54535;52.138;5.398;2022-08-01T04:19:53;19.50;99.90
63299;DHT22;54535;52.138;5.398;2022-08-01T04:22:20;19.50;99.90
63299;DHT22;54535;52.138;5.398;2022-08-01T04:24:48;19.50;99.90
63299;DHT22;54535;52.138;5.398;2022-08-01T04:27:26;19.50;99.90
63299;DHT22;54535;52.138;5.398;2022-08-01T04:30:17;19.50;99.90
63299;DHT22;54535;52.138;5.398;2022-08-01T04:32:47;19.50;99.90
63299;DHT22;54535;52.138;5.398;2022-08-01T04:35:16;19.50;99.90
63299;DHT22;54535;52.138;5.398;2022-08-01T04:38:04;19.60;99.90
63299;DHT22;54535;52.138;5.398;2022-08-01T04:40:31;19.50;99.90
63299;DHT22;54535;52.138;5.398;2022-08-01T04:42:58;19.60;99.90
63299;DHT22;54535;52.138;5.398;2022-08-01T04:45:26;19.60;99.90
63299;DHT22;54535;52.138;5.398;2022-08-01T04:47:53;19.60;99.90
63299;DHT22;54535;52.138;5.398;2022-08-01T04:50:20;19.60;99.90
63299;DHT22;54535;52.138;5.398;2022-08-01T04:52:50;19.60;99.90
63299;DHT22;54535;52.138;5.398;2022-08-01T04:55:18;19.70;99.90
63299;DHT22;54535;52.138;5.398;2022-08-01T04:57:46;19.70;99.90
63299;DHT22;54535;52.138;5.398;2022-08-01T05:00:14;19.70;99.90
63299;DHT22;54535;52.138;5.398;2022-08-01T05:02:43;19.70;99.90
63299;DHT22;54535;52.138;5.398;2022-08-01T05:05:09;19.70;99.90
63299;DHT22;54535;52.138;5.398;2022-08-01T05:07:39;19.70;99.90
63299;DHT22;54535;52.138;5.398;2022-08-01T05:10:10;19.70;99.90
63299;DHT22;54535;52.138;5.398;2022-08-01T05:12:37;19.70;99.90
63299;DHT22;54535;52.138;5.398;2022-08-01T05:15:05;19.70;99.90
63299;DHT22;54535;52.138;5.398;2022-08-01T05:17:40;19.70;99.90
63299;DHT22;54535;52.138;5.398;2022-08-01T05:20:09;19.70;99.90
63299;DHT22;54535;52.138;5.398;2022-08-01T05:22:37;19.70;99.90
63299;DHT22;54535;52.138;5.398;2022-08-01T05:25:04;19.80;99.90
63299;DHT22;54535;52.138;5.398;2022-08-01T05:27:32;19.80;99.90
63299;DHT22;54535;52.138;5.398;2022-08-01T05:29:59;19.70;99.90
63299;DHT22;54535;52.138;5.398;2022-08-01T05:32:26;19.80;99.90
63299;DHT22;54535;52.138;5.398;2022-08-01T05:34:53;19.70;99.90
63299;DHT22;54535;52.138;5.398;2022-08-01T05:37:20;19.80;99.90
63299;DHT22;54535;52.138;5.398;2022-08-01T05:39:47;19.80;99.90
63299;DHT22;54535;52.138;5.398;2022-08-01T05:42:13;19.70;99.90
63299;DHT22;54535;52.138;5.398;2022-08-01T05:44:40;19.70;99.90
63299;DHT22;54535;52.138;5.398;2022-08-01T05:47:07;19.70;99.90
63299;DHT22;54535;52.138;5.398;2022-08-01T05:49:34;19.70;99.90
63299;DHT22;54535;52.138;5.398;2022-08-01T05:52:01;19.70;99.90
63299;DHT22;54535;52.138;5.398;2022-08-01T05:54:29;19.80;99.90
63299;DHT22;54535;52.138;5.398;2022-08-01T05:56:55;19.70;99.90
63299;DHT22;54535;52.138;5.398;2022-08-01T05:59:26;19.80;99.90
63299;DHT22;54535;52.138;5.398;2022-08-01T06:01:53;19.80;99.90
63299;DHT22;54535;52.138;5.398;2022-08-01T06:04:19;19.80;99.90
63299;DHT22;54535;52.138;5.398;2022-08-01T06:06:47;19.80;99.90
63299;DHT22;54535;52.138;5.398;2022-08-01T06:09:13;19.80;99.90
63299;DHT22;54535;52.138;5.398;2022-08-01T06:11:40;19.80;99.90
63299;DHT22;54535;52.138;5.398;2022-08-01T06:14:07;19.90;99.90
63299;DHT22;54535;52.138;5.398;2022-08-01T06:16:34;19.80;99.90
63299;DHT22;54535;52.138;5.398;2022-08-01T06:19:01;19.70;99.90
63299;DHT22;54535;52.138;5.398;2022-08-01T06:21:27;19.70;99.90
63299;DHT22;54535;52.138;5.398;2022-08-01T06:23:54;19.70;99.90
63299;DHT22;54535;52.138;5.398;2022-08-01T06:26:21;19.80;99.90
63299;DHT22;54535;52.138;5.398;2022-08-01T06:28:48;19.80;99.90
63299;DHT22;54535;52.138;5.398;2022-08-01T06:31:15;19.80;99.90
63299;DHT22;54535;52.138;5.398;2022-08-01T06:33:42;19.90;99.90
63299;DHT22;54535;52.138;5.398;2022-08-01T06:36:08;19.90;99.90
63299;DHT22;54535;52.138;5.398;2022-08-01T06:38:35;19.90;99.90
63299;DHT22;54535;52.138;5.398;2022-08-01T06:41:03;19.80;99.90
63299;DHT22;54535;52.138;5.398;2022-08-01T06:43:31;19.80;99.90
63299;DHT22;54535;52.138;5.398;2022-08-01T06:45:57;19.80;99.90
63299;DHT22;54535;52.138;5.398;2022-08-01T06:48:24;19.80;99.90
63299;DHT22;54535;52.138;5.398;2022-08-01T06:50:51;19.70;99.90
63299;DHT22;54535;52.138;5.398;2022-08-01T06:53:37;19.70;99.90
63299;DHT22;54535;52.138;5.398;2022-08-01T06:56:06;19.70;99.90
63299;DHT22;54535;52.138;5.398;2022-08-01T06:58:33;19.80;99.90
63299;DHT22;54535;52.138;5.398;2022-08-01T07:01:03;19.80;99.90
63299;DHT22;54535;52.138;5.398;2022-08-01T07:03:34;19.80;99.90
63299;DHT22;54535;52.138;5.398;2022-08-01T07:06:22;19.80;99.90
63299;DHT22;54535;52.138;5.398;2022-08-01T07:08:49;19.80;99.90
63299;DHT22;54535;52.138;5.398;2022-08-01T07:11:16;19.80;99.90
63299;DHT22;54535;52.138;5.398;2022-08-01T07:13:44;19.80;99.90
63299;DHT22;54535;52.138;5.398;2022-08-01T07:16:13;19.80;99.90
63299;DHT22;54535;52.138;5.398;2022-08-01T07:18:41;19.90;99.90
63299;DHT22;54535;52.138;5.398;2022-08-01T07:21:08;19.90;99.90
63299;DHT22;54535;52.138;5.398;2022-08-01T07:23:55;19.90;99.90
63299;DHT22;54535;52.138;5.398;2022-08-01T07:26:22;19.90;99.90
63299;DHT22;54535;52.138;5.398;2022-08-01T07:28:49;19.90;99.90
63299;DHT22;54535;52.138;5.398;2022-08-01T07:31:17;19.90;99.90
63299;DHT22;54535;52.138;5.398;2022-08-01T07:33:44;19.90;99.90
63299;DHT22;54535;52.138;5.398;2022-08-01T07:36:18;19.90;99.90
63299;DHT22;54535;52.138;5.398;2022-08-01T07:38:46;19.90;99.90
63299;DHT22;54535;52.138;5.398;2022-08-01T07:41:13;19.90;99.90
63299;DHT22;54535;52.138;5.398;2022-08-01T07:43:40;19.90;99.90
63299;DHT22;54535;52.138;5.398;2022-08-01T07:46:20;19.90;99.90
63299;DHT22;54535;52.138;5.398;2022-08-01T07:48:47;19.80;99.90
63299;DHT22;54535;52.138;5.398;2022-08-01T07:51:14;19.80;99.90
63299;DHT22;54535;52.138;5.398;2022-08-01T07:53:41;19.80;99.90
63299;DHT22;54535;52.138;5.398;2022-08-01T07:56:09;19.80;99.90
63299;DHT22;54535;52.138;5.398;2022-08-01T07:58:36;19.80;99.90
63299;DHT22;54535;52.138;5.398;2022-08-01T08:01:03;19.70;99.90
63299;DHT22;54535;52.138;5.398;2022-08-01T08:03:30;19.80;99.90
63299;DHT22;54535;52.138;5.398;2022-08-01T08:05:58;19.80;99.90
63299;DHT22;54535;52.138;5.398;2022-08-01T08:08:27;19.80;99.90
63299;DHT22;54535;52.138;5.398;2022-08-01T08:10:54;19.80;99.90
63299;DHT22;54535;52.138;5.398;2022-08-01T08:13:21;19.90;99.90
63299;DHT22;54535;52.138;5.398;2022-08-01T08:15:48;20.00;99.90
63299;DHT22;54535;52.138;5.398;2022-08-01T08:18:16;20.10;99.90
63299;DHT22;54535;52.138;5.398;2022-08-01T08:20:43;20.10;99.90
63299;DHT22;54535;52.138;5.398;2022-08-01T08:23:11;20.20;99.90
63299;DHT22;54535;52.138;5.398;2022-08-01T08:26:10;20.30;99.90
63299;DHT22;54535;52.138;5.398;2022-08-01T08:28:37;20.40;99.90
63299;DHT22;54535;52.138;5.398;2022-08-01T08:31:07;20.50;99.90
63299;DHT22;54535;52.138;5.398;2022-08-01T08:33:55;20.50;99.90
63299;DHT22;54535;52.138;5.398;2022-08-01T08:36:22;20.60;99.90
63299;DHT22;54535;52.138;5.398;2022-08-01T08:38:58;20.60;99.90
63299;DHT22;54535;52.138;5.398;2022-08-01T08:41:32;20.70;99.90
63299;DHT22;54535;52.138;5.398;2022-08-01T08:44:07;20.70;99.90
63299;DHT22;54535;52.138;5.398;2022-08-01T08:46:41;20.80;99.90
63299;DHT22;54535;52.138;5.398;2022-08-01T08:49:10;20.90;99.90
63299;DHT22;54535;52.138;5.398;2022-08-01T08:51:39;21.00;99.90
63299;DHT22;54535;52.138;5.398;2022-08-01T08:54:07;21.00;99.90
63299;DHT22;54535;52.138;5.398;2022-08-01T08:56:36;21.10;99.90
63299;DHT22;54535;52.138;5.398;2022-08-01T08:59:04;21.10;99.90
63299;DHT22;54535;52.138;5.398;2022-08-01T09:01:32;21.20;99.90
63299;DHT22;54535;52.138;5.398;2022-08-01T09:04:03;21.30;99.90
63299;DHT22;54535;52.138;5.398;2022-08-01T09:06:32;21.30;99.90
63299;DHT22;54535;52.138;5.398;2022-08-01T09:08:59;21.30;99.90
63299;DHT22;54535;52.138;5.398;2022-08-01T09:11:26;21.40;99.70
63299;DHT22;54535;52.138;5.398;2022-08-01T09:14:12;21.40;99.40
63299;DHT22;54535;52.138;5.398;2022-08-01T09:16:44;21.40;98.60
63299;DHT22;54535;52.138;5.398;2022-08-01T09:19:19;21.50;98.80
63299;DHT22;54535;52.138;5.398;2022-08-01T09:22:14;21.50;98.70
63299;DHT22;54535;52.138;5.398;2022-08-01T09:27:30;21.60;98.10
63299;DHT22;54535;52.138;5.398;2022-08-01T09:30:15;21.70;97.80
63299;DHT22;54535;52.138;5.398;2022-08-01T09:33:02;21.80;98.00
63299;DHT22;54535;52.138;5.398;2022-08-01T09:35:55;22.00;98.20
63299;DHT22;54535;52.138;5.398;2022-08-01T09:38:24;22.10;98.30
63299;DHT22;54535;52.138;5.398;2022-08-01T09:40:54;22.20;98.40
63299;DHT22;54535;52.138;5.398;2022-08-01T09:43:26;22.30;98.30
63299;DHT22;54535;52.138;5.398;2022-08-01T09:45:55;22.30;97.90
63299;DHT22;54535;52.138;5.398;2022-08-01T09:48:24;22.40;97.70
63299;DHT22;54535;52.138;5.398;2022-08-01T09:50:56;22.40;97.60
63299;DHT22;54535;52.138;5.398;2022-08-01T09:53:48;22.50;97.20
63299;DHT22;54535;52.138;5.398;2022-08-01T09:56:19;22.50;97.00
63299;DHT22;54535;52.138;5.398;2022-08-01T09:58:55;22.60;96.50
63299;DHT22;54535;52.138;5.398;2022-08-01T10:01:41;22.60;95.60
63299;DHT22;54535;52.138;5.398;2022-08-01T10:04:10;22.70;95.50
63299;DHT22;54535;52.138;5.398;2022-08-01T10:06:40;22.80;95.70
63299;DHT22;54535;52.138;5.398;2022-08-01T10:09:11;22.80;94.10
63299;DHT22;54535;52.138;5.398;2022-08-01T10:11:41;22.80;93.30
63299;DHT22;54535;52.138;5.398;2022-08-01T10:14:11;22.90;93.40
63299;DHT22;54535;52.138;5.398;2022-08-01T10:16:45;23.00;93.50
63299;DHT22;54535;52.138;5.398;2022-08-01T10:19:24;23.10;93.00
63299;DHT22;54535;52.138;5.398;2022-08-01T10:21:56;23.10;91.80
63299;DHT22;54535;52.138;5.398;2022-08-01T10:24:28;23.20;92.30
63299;DHT22;54535;52.138;5.398;2022-08-01T10:26:58;23.30;92.90
63299;DHT22;54535;52.138;5.398;2022-08-01T10:29:48;23.40;93.00
63299;DHT22;54535;52.138;5.398;2022-08-01T10:32:34;23.50;92.30
63299;DHT22;54535;52.138;5.398;2022-08-01T10:35:07;23.70;92.40
63299;DHT22;54535;52.138;5.398;2022-08-01T10:37:41;23.70;91.40
63299;DHT22;54535;52.138;5.398;2022-08-01T10:40:18;23.80;91.40
63299;DHT22;54535;52.138;5.398;2022-08-01T10:43:03;23.80;91.50
63299;DHT22;54535;52.138;5.398;2022-08-01T10:45:30;23.90;91.40
63299;DHT22;54535;52.138;5.398;2022-08-01T10:50:49;24.00;90.30
63299;DHT22;54535;52.138;5.398;2022-08-01T10:53:22;24.10;90.10
63299;DHT22;54535;52.138;5.398;2022-08-01T10:56:09;24.10;90.10
63299;DHT22;54535;52.138;5.398;2022-08-01T10:58:43;24.10;87.90
63299;DHT22;54535;52.138;5.398;2022-08-01T11:09:05;23.90;88.70
63299;DHT22;54535;52.138;5.398;2022-08-01T11:12:08;23.80;88.20
63299;DHT22;54535;52.138;5.398;2022-08-01T11:17:42;23.70;90.00
63299;DHT22;54535;52.138;5.398;2022-08-01T11:20:25;23.70;87.50
63299;DHT22;54535;52.138;5.398;2022-08-01T11:28:25;23.70;87.20
63299;DHT22;54535;52.138;5.398;2022-08-01T11:33:49;23.80;87.70
63299;DHT22;54535;52.138;5.398;2022-08-01T11:36:18;23.90;86.20
63299;DHT22;54535;52.138;5.398;2022-08-01T11:41:41;23.90;84.60
63299;DHT22;54535;52.138;5.398;2022-08-01T11:44:22;24.00;83.50
63299;DHT22;54535;52.138;5.398;2022-08-01T11:46:58;24.10;83.20
63299;DHT22;54535;52.138;5.398;2022-08-01T11:52:07;24.30;80.20
63299;DHT22;54535;52.138;5.398;2022-08-01T11:57:07;24.50;75.60
63299;DHT22;54535;52.138;5.398;2022-08-01T11:59:44;24.50;75.10
63299;DHT22;54535;52.138;5.398;2022-08-01T12:02:37;24.60;75.10
63299;DHT22;54535;52.138;5.398;2022-08-01T12:05:06;24.70;74.80
63299;DHT22;54535;52.138;5.398;2022-08-01T12:07:38;24.80;76.10
63299;DHT22;54535;52.138;5.398;2022-08-01T12:12:35;25.00;75.10
63299;DHT22;54535;52.138;5.398;2022-08-01T12:15:07;25.20;74.50
63299;DHT22;54535;52.138;5.398;2022-08-01T12:17:44;25.30;74.10
63299;DHT22;54535;52.138;5.398;2022-08-01T12:20:26;25.40;73.00
63299;DHT22;54535;52.138;5.398;2022-08-01T12:22:58;25.40;70.80
63299;DHT22;54535;52.138;5.398;2022-08-01T12:25:26;25.50;72.10
63299;DHT22;54535;52.138;5.398;2022-08-01T12:27:53;25.60;69.80
63299;DHT22;54535;52.138;5.398;2022-08-01T12:30:24;25.60;68.80
63299;DHT22;54535;52.138;5.398;2022-08-01T12:32:53;25.60;70.00
63299;DHT22;54535;52.138;5.398;2022-08-01T12:35:22;25.70;68.80
63299;DHT22;54535;52.138;5.398;2022-08-01T12:37:52;25.80;67.10
63299;DHT22;54535;52.138;5.398;2022-08-01T12:40:28;25.80;66.60
63299;DHT22;54535;52.138;5.398;2022-08-01T12:42:58;25.90;66.90
63299;DHT22;54535;52.138;5.398;2022-08-01T12:45:27;25.90;67.80
63299;DHT22;54535;52.138;5.398;2022-08-01T12:47:55;26.00;67.80
63299;DHT22;54535;52.138;5.398;2022-08-01T12:50:28;26.00;65.50
63299;DHT22;54535;52.138;5.398;2022-08-01T12:52:57;26.00;61.90
63299;DHT22;54535;52.138;5.398;2022-08-01T12:55:26;26.10;59.20
63299;DHT22;54535;52.138;5.398;2022-08-01T12:58:08;26.20;59.10
63299;DHT22;54535;52.138;5.398;2022-08-01T13:00:43;26.20;59.00
63299;DHT22;54535;52.138;5.398;2022-08-01T13:03:18;26.40;58.00
63299;DHT22;54535;52.138;5.398;2022-08-01T13:05:48;26.50;58.70
63299;DHT22;54535;52.138;5.398;2022-08-01T13:10:45;26.70;58.40
63299;DHT22;54535;52.138;5.398;2022-08-01T13:13:16;26.90;57.50
63299;DHT22;54535;52.138;5.398;2022-08-01T13:16:04;27.10;55.10
63299;DHT22;54535;52.138;5.398;2022-08-01T13:18:33;27.20;54.20
63299;DHT22;54535;52.138;5.398;2022-08-01T13:21:15;27.30;53.50
63299;DHT22;54535;52.138;5.398;2022-08-01T13:26:44;27.60;53.90
63299;DHT22;54535;52.138;5.398;2022-08-01T13:29:13;27.80;54.70
63299;DHT22;54535;52.138;5.398;2022-08-01T13:31:41;27.80;53.20
63299;DHT22;54535;52.138;5.398;2022-08-01T13:34:08;27.90;53.90
63299;DHT22;54535;52.138;5.398;2022-08-01T13:36:37;28.00;55.80
63299;DHT22;54535;52.138;5.398;2022-08-01T13:39:04;28.10;55.20
63299;DHT22;54535;52.138;5.398;2022-08-01T13:41:50;28.20;53.80
63299;DHT22;54535;52.138;5.398;2022-08-01T13:44:17;28.30;52.60
63299;DHT22;54535;52.138;5.398;2022-08-01T13:46:44;28.40;52.00
63299;DHT22;54535;52.138;5.398;2022-08-01T13:49:17;28.50;48.70
63299;DHT22;54535;52.138;5.398;2022-08-01T13:51:44;28.50;48.70
63299;DHT22;54535;52.138;5.398;2022-08-01T13:54:12;28.50;49.80
63299;DHT22;54535;52.138;5.398;2022-08-01T13:56:39;28.70;49.80
63299;DHT22;54535;52.138;5.398;2022-08-01T13:59:06;29.00;50.30
63299;DHT22;54535;52.138;5.398;2022-08-01T14:01:33;29.10;45.80
63299;DHT22;54535;52.138;5.398;2022-08-01T14:04:01;29.00;44.50
63299;DHT22;54535;52.138;5.398;2022-08-01T14:06:28;29.00;45.00
63299;DHT22;54535;52.138;5.398;2022-08-01T14:08:55;29.00;46.20
63299;DHT22;54535;52.138;5.398;2022-08-01T14:11:21;29.00;45.60
63299;DHT22;54535;52.138;5.398;2022-08-01T14:13:48;28.80;44.30
63299;DHT22;54535;52.138;5.398;2022-08-01T14:16:16;28.70;45.10
63299;DHT22;54535;52.138;5.398;2022-08-01T14:18:43;28.60;44.10
63299;DHT22;54535;52.138;5.398;2022-08-01T14:21:10;28.40;45.00
63299;DHT22;54535;52.138;5.398;2022-08-01T14:23:37;28.40;45.10
63299;DHT22;54535;52.138;5.398;2022-08-01T14:26:04;28.30;44.20
63299;DHT22;54535;52.138;5.398;2022-08-01T14:28:38;28.30;44.70
63299;DHT22;54535;52.138;5.398;2022-08-01T14:31:05;28.20;44.30
63299;DHT22;54535;52.138;5.398;2022-08-01T14:33:32;28.30;43.80
63299;DHT22;54535;52.138;5.398;2022-08-01T14:36:00;28.20;43.80
63299;DHT22;54535;52.138;5.398;2022-08-01T14:38:47;28.30;44.70
63299;DHT22;54535;52.138;5.398;2022-08-01T14:41:15;28.40;43.50
63299;DHT22;54535;52.138;5.398;2022-08-01T14:43:42;28.40;42.40
63299;DHT22;54535;52.138;5.398;2022-08-01T14:46:08;28.40;42.00
63299;DHT22;54535;52.138;5.398;2022-08-01T14:48:36;28.30;41.30
63299;DHT22;54535;52.138;5.398;2022-08-01T14:51:03;28.30;41.40
63299;DHT22;54535;52.138;5.398;2022-08-01T14:53:31;28.40;42.10
63299;DHT22;54535;52.138;5.398;2022-08-01T14:56:02;28.40;42.60
63299;DHT22;54535;52.138;5.398;2022-08-01T14:58:29;28.50;42.70
63299;DHT22;54535;52.138;5.398;2022-08-01T15:00:56;28.60;43.20
63299;DHT22;54535;52.138;5.398;2022-08-01T15:03:25;28.70;43.40
63299;DHT22;54535;52.138;5.398;2022-08-01T15:05:52;28.80;42.40
63299;DHT22;54535;52.138;5.398;2022-08-01T15:08:19;28.90;41.40
63299;DHT22;54535;52.138;5.398;2022-08-01T15:10:45;29.00;41.90
63299;DHT22;54535;52.138;5.398;2022-08-01T15:13:12;29.10;41.90
63299;DHT22;54535;52.138;5.398;2022-08-01T15:15:39;29.20;41.10
63299;DHT22;54535;52.138;5.398;2022-08-01T15:18:05;29.30;40.90
63299;DHT22;54535;52.138;5.398;2022-08-01T15:20:32;29.20;39.40
63299;DHT22;54535;52.138;5.398;2022-08-01T15:22:59;29.20;40.40
63299;DHT22;54535;52.138;5.398;2022-08-01T15:25:26;29.40;41.00
63299;DHT22;54535;52.138;5.398;2022-08-01T15:28:10;29.80;40.40
63299;DHT22;54535;52.138;5.398;2022-08-01T15:30:37;30.30;38.60
63299;DHT22;54535;52.138;5.398;2022-08-01T15:33:04;30.80;38.20
63299;DHT22;54535;52.138;5.398;2022-08-01T15:35:32;31.30;37.20
63299;DHT22;54535;52.138;5.398;2022-08-01T15:37:59;31.90;36.70
63299;DHT22;54535;52.138;5.398;2022-08-01T15:40:26;32.50;36.20
63299;DHT22;54535;52.138;5.398;2022-08-01T15:42:54;33.00;35.60
63299;DHT22;54535;52.138;5.398;2022-08-01T15:45:21;33.60;33.60
63299;DHT22;54535;52.138;5.398;2022-08-01T15:48:08;34.20;31.80
63299;DHT22;54535;52.138;5.398;2022-08-01T15:50:35;34.90;28.70
63299;DHT22;54535;52.138;5.398;2022-08-01T15:53:04;35.60;28.40
63299;DHT22;54535;52.138;5.398;2022-08-01T15:55:35;36.00;28.50
63299;DHT22;54535;52.138;5.398;2022-08-01T15:58:04;36.20;28.20
63299;DHT22;54535;52.138;5.398;2022-08-01T16:00:31;36.60;28.40
63299;DHT22;54535;52.138;5.398;2022-08-01T16:03:07;37.10;27.80
63299;DHT22;54535;52.138;5.398;2022-08-01T16:05:33;37.60;28.00
63299;DHT22;54535;52.138;5.398;2022-08-01T16:08:12;38.00;27.70
63299;DHT22;54535;52.138;5.398;2022-08-01T16:10:39;38.50;27.80
63299;DHT22;54535;52.138;5.398;2022-08-01T16:13:09;38.90;26.90
63299;DHT22;54535;52.138;5.398;2022-08-01T16:15:39;39.30;27.40
63299;DHT22;54535;52.138;5.398;2022-08-01T16:18:06;39.80;27.20
63299;DHT22;54535;52.138;5.398;2022-08-01T16:20:34;40.20;27.40
63299;DHT22;54535;52.138;5.398;2022-08-01T16:23:04;40.60;26.20
63299;DHT22;54535;52.138;5.398;2022-08-01T16:25:30;40.70;25.10
63299;DHT22;54535;52.138;5.398;2022-08-01T16:27:57;40.70;25.40
63299;DHT22;54535;52.138;5.398;2022-08-01T16:30:27;40.70;25.30
63299;DHT22;54535;52.138;5.398;2022-08-01T16:32:56;40.60;25.60
63299;DHT22;54535;52.138;5.398;2022-08-01T16:35:29;40.40;25.90
63299;DHT22;54535;52.138;5.398;2022-08-01T16:38:05;40.00;27.00
63299;DHT22;54535;52.138;5.398;2022-08-01T16:40:32;39.40;27.80